sensor_id;sensor_type;location;lat;lon;timestamp;P1;durP1;ratioP1;P2;durP2;ratioP2
3267;SDS011;1646;52.450;13.326;2022-12-07T00:04:13;13.27;;;7.37;;
3267;SDS011;1646;52.450;13.326;2022-12-07T00:09:14;12.27;;;6.70;;
3267;SDS011;1646;52.450;13.326;2022-12-07T00:14:14;15.47;;;8.03;;
3267;SDS011;1646;52.450;13.326;2022-12-07T00:19:14;12.67;;;6.70;;
3267;SDS011;1646;52.450;13.326;2022-12-07T00:24:13;13.90;;;7.40;;
3267;SDS011;1646;52.450;13.326;2022-12-07T00:29:12;12.40;;;6.40;;
3267;SDS011;1646;52.450;13.326;2022-12-07T00:34:15;11.67;;;5.80;;
3267;SDS011;1646;52.450;13.326;2022-12-07T00:39:14;10.70;;;6.10;;
3267;SDS011;1646;52.450;13.326;2022-12-07T00:44:12;9.97;;;6.70;;
3267;SDS011;1646;52.450;13.326;2022-12-07T00:49:10;8.20;;;4.83;;
3267;SDS011;1646;52.450;13.326;2022-12-07T00:54:10;9.40;;;6.07;;
3267;SDS011;1646;52.450;13.326;2022-12-07T00:59:10;10.40;;;5.60;;
3267;SDS011;1646;52.450;13.326;2022-12-07T01:04:10;9.47;;;6.27;;
3267;SDS011;1646;52.450;13.326;2022-12-07T01:09:10;10.87;;;6.23;;
3267;SDS011;1646;52.450;13.326;2022-12-07T01:19:34;8.53;;;5.00;;
3267;SDS011;1646;52.450;13.326;2022-12-07T01:24:33;7.00;;;5.00;;
3267;SDS011;1646;52.450;13.326;2022-12-07T01:29:31;7.80;;;4.83;;
3267;SDS011;1646;52.450;13.326;2022-12-07T01:34:29;7.00;;;4.10;;
3267;SDS011;1646;52.450;13.326;2022-12-07T01:39:27;7.30;;;4.07;;
3267;SDS011;1646;52.450;13.326;2022-12-07T01:44:27;7.40;;;4.90;;
3267;SDS011;1646;52.450;13.326;2022-12-07T01:49:29;5.83;;;4.20;;
3267;SDS011;1646;52.450;13.326;2022-12-07T01:54:33;7.50;;;4.80;;
3267;SDS011;1646;52.450;13.326;2022-12-07T01:59:33;7.37;;;4.63;;
3267;SDS011;1646;52.450;13.326;2022-12-07T02:04:32;9.80;;;4.33;;
3267;SDS011;1646;52.450;13.326;2022-12-07T02:09:30;7.90;;;4.90;;
3267;SDS011;1646;52.450;13.326;2022-12-07T02:14:28;7.77;;;4.80;;
3267;SDS011;1646;52.450;13.326;2022-12-07T02:19:39;6.53;;;4.10;;
3267;SDS011;1646;52.450;13.326;2022-12-07T02:24:58;6.50;;;4.80;;
3267;SDS011;1646;52.450;13.326;2022-12-07T02:30:07;7.70;;;4.43;;
3267;SDS011;1646;52.450;13.326;2022-12-07T02:35:09;8.40;;;5.13;;
3267;SDS011;1646;52.450;13.326;2022-12-07T02:40:12;7.13;;;4.77;;
3267;SDS011;1646;52.450;13.326;2022-12-07T02:45:17;9.67;;;5.53;;
3267;SDS011;1646;52.450;13.326;2022-12-07T02:50:18;8.80;;;5.00;;
3267;SDS011;1646;52.450;13.326;2022-12-07T02:55:17;9.17;;;6.27;;
3267;SDS011;1646;52.450;13.326;2022-12-07T03:00:20;9.70;;;5.87;;
3267;SDS011;1646;52.450;13.326;2022-12-07T03:05:22;9.17;;;5.40;;
3267;SDS011;1646;52.450;13.326;2022-12-07T03:10:32;11.50;;;5.77;;
3267;SDS011;1646;52.450;13.326;2022-12-07T03:15:39;7.63;;;5.40;;
3267;SDS011;1646;52.450;13.326;2022-12-07T03:20:42;8.23;;;5.20;;
3267;SDS011;1646;52.450;13.326;2022-12-07T03:25:44;8.90;;;5.80;;
3267;SDS011;1646;52.450;13.326;2022-12-07T03:30:47;9.63;;;5.20;;
3267;SDS011;1646;52.450;13.326;2022-12-07T03:35:49;11.90;;;5.80;;
3267;SDS011;1646;52.450;13.326;2022-12-07T03:40:52;11.00;;;5.80;;
3267;SDS011;1646;52.450;13.326;2022-12-07T03:46:00;8.57;;;5.63;;
3267;SDS011;1646;52.450;13.326;2022-12-07T03:51:11;11.60;;;6.60;;
3267;SDS011;1646;52.450;13.326;2022-12-07T03:56:16;12.23;;;6.47;;
3267;SDS011;1646;52.450;13.326;2022-12-07T04:01:17;13.63;;;6.73;;
3267;SDS011;1646;52.450;13.326;2022-12-07T04:06:15;16.70;;;9.03;;
3267;SDS011;1646;52.450;13.326;2022-12-07T04:11:14;13.10;;;7.83;;
3267;SDS011;1646;52.450;13.326;2022-12-07T04:16:12;15.23;;;8.80;;
3267;SDS011;1646;52.450;13.326;2022-12-07T04:21:11;14.53;;;8.07;;
3267;SDS011;1646;52.450;13.326;2022-12-07T04:26:09;16.13;;;8.87;;
3267;SDS011;1646;52.450;13.326;2022-12-07T04:31:07;19.17;;;9.27;;
3267;SDS011;1646;52.450;13.326;2022-12-07T04:36:06;18.50;;;9.30;;
3267;SDS011;1646;52.450;13.326;2022-12-07T04:41:06;19.97;;;10.03;;
3267;SDS011;1646;52.450;13.326;2022-12-07T04:46:04;26.60;;;11.97;;
3267;SDS011;1646;52.450;13.326;2022-12-07T04:51:03;24.80;;;11.90;;
3267;SDS011;1646;52.450;13.326;2022-12-07T04:56:01;21.63;;;11.10;;
3267;SDS011;1646;52.450;13.326;2022-12-07T05:01:01;22.57;;;11.80;;
3267;SDS011;1646;52.450;13.326;2022-12-07T05:05:59;27.00;;;11.57;;
3267;SDS011;1646;52.450;13.326;2022-12-07T05:10:57;23.20;;;11.80;;
3267;SDS011;1646;52.450;13.326;2022-12-07T05:15:55;23.07;;;10.70;;
3267;SDS011;1646;52.450;13.326;2022-12-07T05:20:55;23.93;;;12.63;;
3267;SDS011;1646;52.450;13.326;2022-12-07T05:25:53;23.07;;;11.40;;
3267;SDS011;1646;52.450;13.326;2022-12-07T05:30:51;27.40;;;13.23;;
3267;SDS011;1646;52.450;13.326;2022-12-07T05:35:56;25.33;;;12.20;;
3267;SDS011;1646;52.450;13.326;2022-12-07T05:40:54;29.00;;;13.07;;
3267;SDS011;1646;52.450;13.326;2022-12-07T05:45:52;26.33;;;12.90;;
3267;SDS011;1646;52.450;13.326;2022-12-07T05:50:51;34.37;;;15.33;;
3267;SDS011;1646;52.450;13.326;2022-12-07T05:55:51;30.60;;;14.53;;
3267;SDS011;1646;52.450;13.326;2022-12-07T06:00:50;30.47;;;13.70;;
3267;SDS011;1646;52.450;13.326;2022-12-07T06:05:48;36.10;;;16.40;;
3267;SDS011;1646;52.450;13.326;2022-12-07T06:10:46;41.33;;;15.60;;
3267;SDS011;1646;52.450;13.326;2022-12-07T06:16:08;37.13;;;17.03;;
3267;SDS011;1646;52.450;13.326;2022-12-07T06:21:06;32.33;;;15.30;;
3267;SDS011;1646;52.450;13.326;2022-12-07T06:26:04;29.20;;;14.03;;
3267;SDS011;1646;52.450;13.326;2022-12-07T06:31:02;29.13;;;15.13;;
3267;SDS011;1646;52.450;13.326;2022-12-07T06:36:09;34.13;;;14.33;;
3267;SDS011;1646;52.450;13.326;2022-12-07T06:41:07;32.23;;;15.10;;
3267;SDS011;1646;52.450;13.326;2022-12-07T06:46:05;34.27;;;16.73;;
3267;SDS011;1646;52.450;13.326;2022-12-07T06:51:04;28.53;;;14.33;;
3267;SDS011;1646;52.450;13.326;2022-12-07T06:56:04;32.07;;;14.50;;
3267;SDS011;1646;52.450;13.326;2022-12-07T07:01:02;31.37;;;14.93;;
3267;SDS011;1646;52.450;13.326;2022-12-07T07:06:05;28.67;;;14.00;;
3267;SDS011;1646;52.450;13.326;2022-12-07T07:11:06;31.07;;;14.47;;
3267;SDS011;1646;52.450;13.326;2022-12-07T07:16:05;24.97;;;13.27;;
3267;SDS011;1646;52.450;13.326;2022-12-07T07:21:04;25.87;;;13.90;;
3267;SDS011;1646;52.450;13.326;2022-12-07T07:26:02;28.07;;;12.93;;
3267;SDS011;1646;52.450;13.326;2022-12-07T07:31:02;24.93;;;13.27;;
3267;SDS011;1646;52.450;13.326;2022-12-07T07:36:00;23.93;;;12.63;;
3267;SDS011;1646;52.450;13.326;2022-12-07T07:40:59;27.93;;;13.27;;
3267;SDS011;1646;52.450;13.326;2022-12-07T07:45:57;23.13;;;12.00;;
3267;SDS011;1646;52.450;13.326;2022-12-07T07:50:56;19.53;;;8.97;;
3267;SDS011;1646;52.450;13.326;2022-12-07T07:55:54;20.47;;;9.70;;
3267;SDS011;1646;52.450;13.326;2022-12-07T08:00:52;16.67;;;9.20;;
3267;SDS011;1646;52.450;13.326;2022-12-07T08:05:50;18.63;;;9.70;;
3267;SDS011;1646;52.450;13.326;2022-12-07T08:10:50;17.90;;;9.67;;
3267;SDS011;1646;52.450;13.326;2022-12-07T08:15:48;12.30;;;7.90;;
3267;SDS011;1646;52.450;13.326;2022-12-07T08:20:46;14.10;;;7.43;;
3267;SDS011;1646;52.450;13.326;2022-12-07T08:25:44;11.07;;;7.00;;
3267;SDS011;1646;52.450;13.326;2022-12-07T08:30:43;14.70;;;5.30;;
3267;SDS011;1646;52.450;13.326;2022-12-07T08:35:42;4.13;;;3.10;;
3267;SDS011;1646;52.450;13.326;2022-12-07T08:40:40;5.37;;;3.53;;
3267;SDS011;1646;52.450;13.326;2022-12-07T08:45:38;5.07;;;3.50;;
3267;SDS011;1646;52.450;13.326;2022-12-07T08:50:39;9.60;;;4.30;;
3267;SDS011;1646;52.450;13.326;2022-12-07T08:55:45;6.13;;;3.57;;
3267;SDS011;1646;52.450;13.326;2022-12-07T09:00:44;4.23;;;3.23;;
3267;SDS011;1646;52.450;13.326;2022-12-07T09:05:43;2.00;;;1.80;;
3267;SDS011;1646;52.450;13.326;2022-12-07T09:10:41;2.27;;;2.07;;
3267;SDS011;1646;52.450;13.326;2022-12-07T09:15:39;2.87;;;2.03;;
3267;SDS011;1646;52.450;13.326;2022-12-07T09:20:37;3.73;;;1.93;;
3267;SDS011;1646;52.450;13.326;2022-12-07T09:25:37;2.47;;;1.83;;
3267;SDS011;1646;52.450;13.326;2022-12-07T09:30:35;2.10;;;1.90;;
3267;SDS011;1646;52.450;13.326;2022-12-07T09:35:53;2.80;;;1.60;;
3267;SDS011;1646;52.450;13.326;2022-12-07T09:40:53;4.57;;;2.63;;
3267;SDS011;1646;52.450;13.326;2022-12-07T09:45:52;4.23;;;2.50;;
3267;SDS011;1646;52.450;13.326;2022-12-07T09:50:52;3.77;;;2.70;;
3267;SDS011;1646;52.450;13.326;2022-12-07T09:55:55;2.20;;;2.00;;
3267;SDS011;1646;52.450;13.326;2022-12-07T10:00:55;2.87;;;1.83;;
3267;SDS011;1646;52.450;13.326;2022-12-07T10:05:55;3.10;;;2.00;;
3267;SDS011;1646;52.450;13.326;2022-12-07T10:10:56;1.93;;;1.60;;
3267;SDS011;1646;52.450;13.326;2022-12-07T10:15:55;3.63;;;1.73;;
3267;SDS011;1646;52.450;13.326;2022-12-07T10:21:03;2.57;;;1.90;;
3267;SDS011;1646;52.450;13.326;2022-12-07T10:26:25;3.07;;;1.97;;
3267;SDS011;1646;52.450;13.326;2022-12-07T10:31:26;4.47;;;2.17;;
3267;SDS011;1646;52.450;13.326;2022-12-07T10:36:26;4.00;;;2.43;;
3267;SDS011;1646;52.450;13.326;2022-12-07T10:41:33;2.40;;;2.00;;
3267;SDS011;1646;52.450;13.326;2022-12-07T10:46:46;3.53;;;2.73;;
3267;SDS011;1646;52.450;13.326;2022-12-07T10:52:02;4.83;;;2.57;;
3267;SDS011;1646;52.450;13.326;2022-12-07T10:57:11;8.17;;;3.00;;
3267;SDS011;1646;52.450;13.326;2022-12-07T11:02:25;5.10;;;3.27;;
3267;SDS011;1646;52.450;13.326;2022-12-07T11:07:39;4.57;;;3.40;;
3267;SDS011;1646;52.450;13.326;2022-12-07T11:12:57;5.30;;;3.70;;
3267;SDS011;1646;52.450;13.326;2022-12-07T11:18:06;7.80;;;3.20;;
3267;SDS011;1646;52.450;13.326;2022-12-07T11:23:17;3.80;;;3.43;;
3267;SDS011;1646;52.450;13.326;2022-12-07T11:28:25;5.27;;;3.10;;
3267;SDS011;1646;52.450;13.326;2022-12-07T11:33:35;4.87;;;3.23;;
3267;SDS011;1646;52.450;13.326;2022-12-07T11:38:41;4.40;;;2.33;;
3267;SDS011;1646;52.450;13.326;2022-12-07T11:43:52;4.50;;;2.77;;
3267;SDS011;1646;52.450;13.326;2022-12-07T11:48:55;6.00;;;3.17;;
3267;SDS011;1646;52.450;13.326;2022-12-07T11:54:01;5.27;;;2.93;;
3267;SDS011;1646;52.450;13.326;2022-12-07T11:59:06;10.67;;;3.27;;
3267;SDS011;1646;52.450;13.326;2022-12-07T12:04:13;3.97;;;2.40;;
3267;SDS011;1646;52.450;13.326;2022-12-07T12:09:24;3.80;;;1.87;;
3267;SDS011;1646;52.450;13.326;2022-12-07T12:14:37;4.90;;;2.70;;
3267;SDS011;1646;52.450;13.326;2022-12-07T12:19:54;2.40;;;1.93;;
3267;SDS011;1646;52.450;13.326;2022-12-07T12:24:57;3.20;;;2.20;;
3267;SDS011;1646;52.450;13.326;2022-12-07T12:29:57;2.43;;;2.20;;
3267;SDS011;1646;52.450;13.326;2022-12-07T12:35:00;5.80;;;3.57;;
3267;SDS011;1646;52.450;13.326;2022-12-07T12:45:47;7.60;;;3.10;;
3267;SDS011;1646;52.450;13.326;2022-12-07T12:50:45;9.20;;;2.53;;
3267;SDS011;1646;52.450;13.326;2022-12-07T12:55:58;6.27;;;2.30;;
3267;SDS011;1646;52.450;13.326;2022-12-07T13:01:41;14.17;;;2.63;;
3267;SDS011;1646;52.450;13.326;2022-12-07T13:06:40;6.20;;;2.70;;
3267;SDS011;1646;52.450;13.326;2022-12-07T13:11:40;4.57;;;2.00;;
3267;SDS011;1646;52.450;13.326;2022-12-07T13:16:43;3.03;;;1.90;;
3267;SDS011;1646;52.450;13.326;2022-12-07T13:21:41;4.17;;;2.40;;
3267;SDS011;1646;52.450;13.326;2022-12-07T13:26:41;1.90;;;1.70;;
3267;SDS011;1646;52.450;13.326;2022-12-07T13:31:43;11.23;;;2.50;;
3267;SDS011;1646;52.450;13.326;2022-12-07T13:36:43;4.07;;;1.83;;
3267;SDS011;1646;52.450;13.326;2022-12-07T13:41:42;7.53;;;2.03;;
3267;SDS011;1646;52.450;13.326;2022-12-07T13:46:44;2.50;;;1.40;;
3267;SDS011;1646;52.450;13.326;2022-12-07T13:51:46;3.30;;;2.10;;
3267;SDS011;1646;52.450;13.326;2022-12-07T13:56:47;3.20;;;1.40;;
3267;SDS011;1646;52.450;13.326;2022-12-07T14:01:49;5.20;;;1.90;;
3267;SDS011;1646;52.450;13.326;2022-12-07T14:06:49;4.00;;;2.03;;
3267;SDS011;1646;52.450;13.326;2022-12-07T14:11:49;7.30;;;2.93;;
3267;SDS011;1646;52.450;13.326;2022-12-07T14:16:57;6.87;;;2.53;;
3267;SDS011;1646;52.450;13.326;2022-12-07T14:22:05;5.70;;;2.00;;
3267;SDS011;1646;52.450;13.326;2022-12-07T14:27:04;3.90;;;2.13;;
3267;SDS011;1646;52.450;13.326;2022-12-07T14:32:21;3.93;;;1.87;;
3267;SDS011;1646;52.450;13.326;2022-12-07T14:37:24;8.40;;;2.40;;
3267;SDS011;1646;52.450;13.326;2022-12-07T14:42:24;7.27;;;2.90;;
3267;SDS011;1646;52.450;13.326;2022-12-07T14:47:26;6.33;;;2.30;;
3267;SDS011;1646;52.450;13.326;2022-12-07T14:52:46;5.70;;;2.33;;
3267;SDS011;1646;52.450;13.326;2022-12-07T14:58:08;9.80;;;3.27;;
3267;SDS011;1646;52.450;13.326;2022-12-07T15:03:12;11.20;;;2.80;;
3267;SDS011;1646;52.450;13.326;2022-12-07T15:08:10;7.40;;;2.27;;
3267;SDS011;1646;52.450;13.326;2022-12-07T15:13:09;5.00;;;2.00;;
3267;SDS011;1646;52.450;13.326;2022-12-07T15:18:26;5.00;;;2.13;;
3267;SDS011;1646;52.450;13.326;2022-12-07T15:23:24;3.20;;;1.77;;
3267;SDS011;1646;52.450;13.326;2022-12-07T15:28:22;7.83;;;2.67;;
3267;SDS011;1646;52.450;13.326;2022-12-07T15:33:21;7.00;;;2.13;;
3267;SDS011;1646;52.450;13.326;2022-12-07T15:38:20;2.67;;;2.30;;
3267;SDS011;1646;52.450;13.326;2022-12-07T15:43:38;3.00;;;1.77;;
3267;SDS011;1646;52.450;13.326;2022-12-07T15:48:54;8.03;;;2.90;;
3267;SDS011;1646;52.450;13.326;2022-12-07T15:53:53;6.60;;;2.00;;
3267;SDS011;1646;52.450;13.326;2022-12-07T15:58:52;5.20;;;2.07;;
3267;SDS011;1646;52.450;13.326;2022-12-07T16:03:50;4.00;;;1.83;;
3267;SDS011;1646;52.450;13.326;2022-12-07T16:08:48;7.47;;;2.00;;
3267;SDS011;1646;52.450;13.326;2022-12-07T16:13:47;7.70;;;2.87;;
3267;SDS011;1646;52.450;13.326;2022-12-07T16:18:46;5.93;;;2.60;;
3267;SDS011;1646;52.450;13.326;2022-12-07T16:23:45;3.63;;;2.30;;
3267;SDS011;1646;52.450;13.326;2022-12-07T16:28:43;8.43;;;2.80;;
3267;SDS011;1646;52.450;13.326;2022-12-07T16:33:43;2.60;;;1.70;;
3267;SDS011;1646;52.450;13.326;2022-12-07T16:38:41;5.43;;;2.53;;
3267;SDS011;1646;52.450;13.326;2022-12-07T16:43:47;4.23;;;2.30;;
3267;SDS011;1646;52.450;13.326;2022-12-07T16:48:46;9.47;;;2.47;;
3267;SDS011;1646;52.450;13.326;2022-12-07T16:53:45;5.47;;;2.47;;
3267;SDS011;1646;52.450;13.326;2022-12-07T16:58:43;8.73;;;2.83;;
3267;SDS011;1646;52.450;13.326;2022-12-07T17:03:42;6.03;;;3.63;;
3267;SDS011;1646;52.450;13.326;2022-12-07T17:08:42;6.40;;;2.40;;
3267;SDS011;1646;52.450;13.326;2022-12-07T17:13:41;3.53;;;2.23;;
3267;SDS011;1646;52.450;13.326;2022-12-07T17:18:57;6.50;;;2.40;;
3267;SDS011;1646;52.450;13.326;2022-12-07T17:23:57;8.10;;;3.17;;
3267;SDS011;1646;52.450;13.326;2022-12-07T17:28:55;3.90;;;2.20;;
3267;SDS011;1646;52.450;13.326;2022-12-07T17:33:53;5.97;;;1.97;;
3267;SDS011;1646;52.450;13.326;2022-12-07T17:38:52;4.70;;;2.17;;
3267;SDS011;1646;52.450;13.326;2022-12-07T17:43:51;6.60;;;2.10;;
3267;SDS011;1646;52.450;13.326;2022-12-07T17:48:49;4.90;;;2.47;;
3267;SDS011;1646;52.450;13.326;2022-12-07T17:53:48;5.83;;;2.30;;
3267;SDS011;1646;52.450;13.326;2022-12-07T17:58:47;8.80;;;2.70;;
3267;SDS011;1646;52.450;13.326;2022-12-07T18:03:46;5.33;;;2.90;;
3267;SDS011;1646;52.450;13.326;2022-12-07T18:08:44;5.80;;;3.43;;
3267;SDS011;1646;52.450;13.326;2022-12-07T18:13:42;3.87;;;3.27;;
3267;SDS011;1646;52.450;13.326;2022-12-07T18:18:40;9.10;;;3.67;;
3267;SDS011;1646;52.450;13.326;2022-12-07T18:23:49;7.80;;;2.70;;
3267;SDS011;1646;52.450;13.326;2022-12-07T18:28:49;5.83;;;3.07;;
3267;SDS011;1646;52.450;13.326;2022-12-07T18:33:47;8.03;;;3.60;;
3267;SDS011;1646;52.450;13.326;2022-12-07T18:38:45;6.23;;;2.57;;
3267;SDS011;1646;52.450;13.326;2022-12-07T18:43:45;4.77;;;2.97;;
3267;SDS011;1646;52.450;13.326;2022-12-07T18:48:43;5.10;;;3.33;;
3267;SDS011;1646;52.450;13.326;2022-12-07T18:53:42;8.50;;;3.27;;
3267;SDS011;1646;52.450;13.326;2022-12-07T18:58:40;8.10;;;3.33;;
3267;SDS011;1646;52.450;13.326;2022-12-07T19:04:01;9.30;;;3.70;;
3267;SDS011;1646;52.450;13.326;2022-12-07T19:09:00;10.43;;;4.23;;
3267;SDS011;1646;52.450;13.326;2022-12-07T19:13:58;9.30;;;4.00;;
3267;SDS011;1646;52.450;13.326;2022-12-07T19:18:56;7.40;;;3.90;;
3267;SDS011;1646;52.450;13.326;2022-12-07T19:23:56;5.70;;;3.00;;
3267;SDS011;1646;52.450;13.326;2022-12-07T19:28:54;7.40;;;3.60;;
3267;SDS011;1646;52.450;13.326;2022-12-07T19:33:52;6.40;;;3.50;;
3267;SDS011;1646;52.450;13.326;2022-12-07T19:38:50;8.10;;;4.10;;
3267;SDS011;1646;52.450;13.326;2022-12-07T19:43:50;7.20;;;4.00;;
3267;SDS011;1646;52.450;13.326;2022-12-07T19:48:49;10.80;;;3.30;;
3267;SDS011;1646;52.450;13.326;2022-12-07T19:53:47;5.77;;;3.30;;
3267;SDS011;1646;52.450;13.326;2022-12-07T19:58:45;7.77;;;3.97;;
3267;SDS011;1646;52.450;13.326;2022-12-07T20:03:45;10.67;;;4.50;;
3267;SDS011;1646;52.450;13.326;2022-12-07T20:08:44;8.13;;;5.00;;
3267;SDS011;1646;52.450;13.326;2022-12-07T20:13:43;9.07;;;5.00;;
3267;SDS011;1646;52.450;13.326;2022-12-07T20:18:41;8.43;;;3.80;;
3267;SDS011;1646;52.450;13.326;2022-12-07T20:23:40;9.63;;;3.83;;
3267;SDS011;1646;52.450;13.326;2022-12-07T20:28:39;8.87;;;3.87;;
3267;SDS011;1646;52.450;13.326;2022-12-07T20:33:41;8.00;;;4.67;;
3267;SDS011;1646;52.450;13.326;2022-12-07T20:38:43;16.03;;;4.57;;
3267;SDS011;1646;52.450;13.326;2022-12-07T20:43:42;12.50;;;4.40;;
3267;SDS011;1646;52.450;13.326;2022-12-07T20:48:40;8.13;;;4.20;;
3267;SDS011;1646;52.450;13.326;2022-12-07T20:53:38;8.03;;;4.47;;
3267;SDS011;1646;52.450;13.326;2022-12-07T20:58:37;8.13;;;4.37;;
3267;SDS011;1646;52.450;13.326;2022-12-07T21:03:35;6.40;;;3.93;;
3267;SDS011;1646;52.450;13.326;2022-12-07T21:08:33;11.27;;;4.30;;
3267;SDS011;1646;52.450;13.326;2022-12-07T21:13:31;15.90;;;4.27;;
3267;SDS011;1646;52.450;13.326;2022-12-07T21:18:31;8.93;;;4.47;;
3267;SDS011;1646;52.450;13.326;2022-12-07T21:23:29;7.97;;;4.40;;
3267;SDS011;1646;52.450;13.326;2022-12-07T21:28:27;8.17;;;4.53;;
3267;SDS011;1646;52.450;13.326;2022-12-07T21:33:27;11.80;;;4.63;;
3267;SDS011;1646;52.450;13.326;2022-12-07T21:38:26;10.77;;;5.10;;
3267;SDS011;1646;52.450;13.326;2022-12-07T21:43:25;13.40;;;5.00;;
3267;SDS011;1646;52.450;13.326;2022-12-07T21:48:23;9.10;;;4.37;;
3267;SDS011;1646;52.450;13.326;2022-12-07T21:53:21;12.40;;;4.33;;
3267;SDS011;1646;52.450;13.326;2022-12-07T21:58:21;12.03;;;4.23;;
3267;SDS011;1646;52.450;13.326;2022-12-07T22:03:19;5.70;;;3.60;;
3267;SDS011;1646;52.450;13.326;2022-12-07T22:08:17;10.57;;;4.80;;
3267;SDS011;1646;52.450;13.326;2022-12-07T22:13:15;6.73;;;3.90;;
3267;SDS011;1646;52.450;13.326;2022-12-07T22:18:15;8.20;;;4.50;;
3267;SDS011;1646;52.450;13.326;2022-12-07T22:23:13;14.30;;;4.50;;
3267;SDS011;1646;52.450;13.326;2022-12-07T22:28:11;10.20;;;4.20;;
3267;SDS011;1646;52.450;13.326;2022-12-07T22:33:09;6.93;;;4.07;;
3267;SDS011;1646;52.450;13.326;2022-12-07T22:38:08;13.53;;;4.63;;
3267;SDS011;1646;52.450;13.326;2022-12-07T22:43:09;8.90;;;4.60;;
3267;SDS011;1646;52.450;13.326;2022-12-07T22:48:07;5.47;;;3.97;;
3267;SDS011;1646;52.450;13.326;2022-12-07T22:53:06;8.67;;;4.03;;
3267;SDS011;1646;52.450;13.326;2022-12-07T22:58:05;6.37;;;3.77;;
3267;SDS011;1646;52.450;13.326;2022-12-07T23:03:03;10.20;;;5.00;;
3267;SDS011;1646;52.450;13.326;2022-12-07T23:08:02;4.43;;;3.20;;
3267;SDS011;1646;52.450;13.326;2022-12-07T23:13:00;7.90;;;3.67;;
3267;SDS011;1646;52.450;13.326;2022-12-07T23:18:17;7.27;;;3.60;;
3267;SDS011;1646;52.450;13.326;2022-12-07T23:23:15;5.73;;;4.07;;
3267;SDS011;1646;52.450;13.326;2022-12-07T23:28:14;6.40;;;3.40;;
3267;SDS011;1646;52.450;13.326;2022-12-07T23:33:12;5.90;;;3.40;;
3267;SDS011;1646;52.450;13.326;2022-12-07T23:38:11;9.30;;;3.67;;
3267;SDS011;1646;52.450;13.326;2022-12-07T23:43:09;8.23;;;4.13;;
3267;SDS011;1646;52.450;13.326;2022-12-07T23:48:08;10.03;;;3.40;;
3267;SDS011;1646;52.450;13.326;2022-12-07T23:53:06;14.00;;;4.30;;
3267;SDS011;1646;52.450;13.326;2022-12-07T23:58:05;8.80;;;4.53;;
